Terminal Aerodrome Forecast
Issued by NWS

Home | Current Version | Previous Version | Graphics & Text | Print | Product List | Glossary On
Versions: 1 2 3 4 5 6 7 8 9 10 11 12 13 14 15 16 17 18 19 20 21
000
FTUS43 KBIS 231700
TAFJMS
TAF
KJMS 231720Z 2318/2418 34019G25KT 4SM -SN BR FEW009 OVC045
      TEMPO 2318/2320 2SM -SN BR OVC024
     FM232000 33018G25KT 5SM BR OVC045
     FM240400 32012KT P6SM OVC015
     FM241200 28007KT P6SM OVC024=

USA.gov is the U.S. government's official web portal to all federal, state and local government web resources and services.